sensor_id;sensor_type;location;lat;lon;timestamp;temperature;humidity
4566;DHT22;2295;51.050;14.608;2024-01-27T00:01:28;2.90;99.90
4566;DHT22;2295;51.050;14.608;2024-01-27T00:03:59;2.90;99.90
4566;DHT22;2295;51.050;14.608;2024-01-27T00:06:30;2.90;99.90
4566;DHT22;2295;51.050;14.608;2024-01-27T00:09:01;2.90;99.90
4566;DHT22;2295;51.050;14.608;2024-01-27T00:11:29;2.90;99.90
4566;DHT22;2295;51.050;14.608;2024-01-27T00:13:59;2.90;99.90
4566;DHT22;2295;51.050;14.608;2024-01-27T00:16:29;2.80;99.90
4566;DHT22;2295;51.050;14.608;2024-01-27T00:18:58;2.90;99.90
4566;DHT22;2295;51.050;14.608;2024-01-27T00:21:35;2.90;99.90
4566;DHT22;2295;51.050;14.608;2024-01-27T00:24:09;2.90;99.90
4566;DHT22;2295;51.050;14.608;2024-01-27T00:26:43;2.90;99.90
4566;DHT22;2295;51.050;14.608;2024-01-27T00:29:12;2.90;99.90
4566;DHT22;2295;51.050;14.608;2024-01-27T00:31:42;2.80;99.90
4566;DHT22;2295;51.050;14.608;2024-01-27T00:34:10;2.90;99.90
4566;DHT22;2295;51.050;14.608;2024-01-27T00:36:42;2.80;99.90
4566;DHT22;2295;51.050;14.608;2024-01-27T00:39:22;2.80;99.90
4566;DHT22;2295;51.050;14.608;2024-01-27T00:42:02;2.90;99.90
4566;DHT22;2295;51.050;14.608;2024-01-27T00:44:39;2.80;99.90
4566;DHT22;2295;51.050;14.608;2024-01-27T00:47:09;2.80;99.90
4566;DHT22;2295;51.050;14.608;2024-01-27T00:49:38;2.90;99.90
4566;DHT22;2295;51.050;14.608;2024-01-27T00:52:07;2.80;99.90
4566;DHT22;2295;51.050;14.608;2024-01-27T00:54:35;2.80;99.90
4566;DHT22;2295;51.050;14.608;2024-01-27T00:57:04;2.80;99.90
4566;DHT22;2295;51.050;14.608;2024-01-27T00:59:36;2.70;99.90
4566;DHT22;2295;51.050;14.608;2024-01-27T01:02:18;2.60;99.90
4566;DHT22;2295;51.050;14.608;2024-01-27T01:04:49;2.60;99.90
4566;DHT22;2295;51.050;14.608;2024-01-27T01:07:31;2.60;99.90
4566;DHT22;2295;51.050;14.608;2024-01-27T01:12:59;2.40;99.90
4566;DHT22;2295;51.050;14.608;2024-01-27T01:15:28;2.40;99.90
4566;DHT22;2295;51.050;14.608;2024-01-27T01:17:58;2.40;99.90
4566;DHT22;2295;51.050;14.608;2024-01-27T01:20:27;2.40;99.90
4566;DHT22;2295;51.050;14.608;2024-01-27T01:23:08;2.40;99.90
4566;DHT22;2295;51.050;14.608;2024-01-27T01:25:39;2.60;99.90
4566;DHT22;2295;51.050;14.608;2024-01-27T01:28:17;2.60;99.90
4566;DHT22;2295;51.050;14.608;2024-01-27T01:30:46;2.60;99.90
4566;DHT22;2295;51.050;14.608;2024-01-27T01:33:18;2.60;99.90
4566;DHT22;2295;51.050;14.608;2024-01-27T01:35:47;2.50;99.90
4566;DHT22;2295;51.050;14.608;2024-01-27T01:38:15;2.50;99.90
4566;DHT22;2295;51.050;14.608;2024-01-27T01:40:53;2.50;99.90
4566;DHT22;2295;51.050;14.608;2024-01-27T01:43:24;2.50;99.90
4566;DHT22;2295;51.050;14.608;2024-01-27T01:45:53;2.60;99.90
4566;DHT22;2295;51.050;14.608;2024-01-27T01:48:23;2.60;99.90
4566;DHT22;2295;51.050;14.608;2024-01-27T01:50:52;2.60;99.90
4566;DHT22;2295;51.050;14.608;2024-01-27T01:53:21;2.70;99.90
4566;DHT22;2295;51.050;14.608;2024-01-27T01:55:50;2.70;99.90
4566;DHT22;2295;51.050;14.608;2024-01-27T01:58:20;2.60;99.90
4566;DHT22;2295;51.050;14.608;2024-01-27T02:00:57;2.60;99.90
4566;DHT22;2295;51.050;14.608;2024-01-27T02:03:31;2.60;99.90
4566;DHT22;2295;51.050;14.608;2024-01-27T02:05:59;2.60;99.90
4566;DHT22;2295;51.050;14.608;2024-01-27T02:08:28;2.60;99.90
4566;DHT22;2295;51.050;14.608;2024-01-27T02:10:57;2.50;99.90
4566;DHT22;2295;51.050;14.608;2024-01-27T02:13:29;2.40;99.90
4566;DHT22;2295;51.050;14.608;2024-01-27T02:15:58;2.40;99.90
4566;DHT22;2295;51.050;14.608;2024-01-27T02:18:33;2.40;99.90
4566;DHT22;2295;51.050;14.608;2024-01-27T02:23:59;2.50;99.90
4566;DHT22;2295;51.050;14.608;2024-01-27T02:26:35;2.50;99.90
4566;DHT22;2295;51.050;14.608;2024-01-27T02:29:03;2.50;99.90
4566;DHT22;2295;51.050;14.608;2024-01-27T02:31:37;2.50;99.90
4566;DHT22;2295;51.050;14.608;2024-01-27T02:34:14;2.50;99.90
4566;DHT22;2295;51.050;14.608;2024-01-27T02:36:42;2.50;99.90
4566;DHT22;2295;51.050;14.608;2024-01-27T02:39:11;2.50;99.90
4566;DHT22;2295;51.050;14.608;2024-01-27T02:41:41;2.50;99.90
4566;DHT22;2295;51.050;14.608;2024-01-27T02:44:10;2.50;99.90
4566;DHT22;2295;51.050;14.608;2024-01-27T02:46:38;2.50;99.90
4566;DHT22;2295;51.050;14.608;2024-01-27T02:49:07;2.60;99.90
4566;DHT22;2295;51.050;14.608;2024-01-27T02:51:36;2.60;99.90
4566;DHT22;2295;51.050;14.608;2024-01-27T02:54:09;2.50;99.90
4566;DHT22;2295;51.050;14.608;2024-01-27T02:56:51;2.60;99.90
4566;DHT22;2295;51.050;14.608;2024-01-27T02:59:26;2.50;99.90
4566;DHT22;2295;51.050;14.608;2024-01-27T03:01:56;2.50;99.90
4566;DHT22;2295;51.050;14.608;2024-01-27T03:04:28;2.50;99.90
4566;DHT22;2295;51.050;14.608;2024-01-27T03:06:57;2.50;99.90
4566;DHT22;2295;51.050;14.608;2024-01-27T03:09:36;2.40;99.90
4566;DHT22;2295;51.050;14.608;2024-01-27T03:12:41;2.40;99.90
4566;DHT22;2295;51.050;14.608;2024-01-27T03:15:19;2.40;99.90
4566;DHT22;2295;51.050;14.608;2024-01-27T03:17:47;2.40;99.90
4566;DHT22;2295;51.050;14.608;2024-01-27T03:20:16;2.40;99.90
4566;DHT22;2295;51.050;14.608;2024-01-27T03:22:44;2.30;99.90
4566;DHT22;2295;51.050;14.608;2024-01-27T03:25:13;2.30;99.90
4566;DHT22;2295;51.050;14.608;2024-01-27T03:28:18;2.20;99.90
4566;DHT22;2295;51.050;14.608;2024-01-27T03:30:46;2.20;99.90
4566;DHT22;2295;51.050;14.608;2024-01-27T03:33:29;2.30;99.90
4566;DHT22;2295;51.050;14.608;2024-01-27T03:36:19;2.20;99.90
4566;DHT22;2295;51.050;14.608;2024-01-27T03:42:04;2.20;99.90
4566;DHT22;2295;51.050;14.608;2024-01-27T03:44:37;2.20;99.90
4566;DHT22;2295;51.050;14.608;2024-01-27T03:47:37;2.10;99.90
4566;DHT22;2295;51.050;14.608;2024-01-27T03:50:09;2.10;99.90
4566;DHT22;2295;51.050;14.608;2024-01-27T03:53:09;2.10;99.90
4566;DHT22;2295;51.050;14.608;2024-01-27T03:55:44;2.00;99.90
4566;DHT22;2295;51.050;14.608;2024-01-27T03:58:53;2.00;99.90
4566;DHT22;2295;51.050;14.608;2024-01-27T04:01:26;2.00;99.90
4566;DHT22;2295;51.050;14.608;2024-01-27T04:03:55;2.00;99.90
4566;DHT22;2295;51.050;14.608;2024-01-27T04:06:24;1.90;99.90
4566;DHT22;2295;51.050;14.608;2024-01-27T04:08:55;1.90;99.90
4566;DHT22;2295;51.050;14.608;2024-01-27T04:11:31;1.90;99.90
4566;DHT22;2295;51.050;14.608;2024-01-27T04:14:00;1.90;99.90
4566;DHT22;2295;51.050;14.608;2024-01-27T04:16:33;2.00;99.90
4566;DHT22;2295;51.050;14.608;2024-01-27T04:19:01;2.00;99.90
4566;DHT22;2295;51.050;14.608;2024-01-27T04:21:36;2.00;99.90
4566;DHT22;2295;51.050;14.608;2024-01-27T04:24:05;2.00;99.90
4566;DHT22;2295;51.050;14.608;2024-01-27T04:26:44;2.00;99.90
4566;DHT22;2295;51.050;14.608;2024-01-27T04:29:16;2.00;99.90
4566;DHT22;2295;51.050;14.608;2024-01-27T04:31:45;2.10;99.90
4566;DHT22;2295;51.050;14.608;2024-01-27T04:34:17;2.10;99.90
4566;DHT22;2295;51.050;14.608;2024-01-27T04:36:47;2.10;99.90
4566;DHT22;2295;51.050;14.608;2024-01-27T04:39:33;2.10;99.90
4566;DHT22;2295;51.050;14.608;2024-01-27T04:42:24;2.10;99.90
4566;DHT22;2295;51.050;14.608;2024-01-27T04:44:53;2.10;99.90
4566;DHT22;2295;51.050;14.608;2024-01-27T04:47:23;2.10;99.90
4566;DHT22;2295;51.050;14.608;2024-01-27T04:49:52;2.10;99.90
4566;DHT22;2295;51.050;14.608;2024-01-27T04:52:21;2.10;99.90
4566;DHT22;2295;51.050;14.608;2024-01-27T04:55:15;2.20;99.90
4566;DHT22;2295;51.050;14.608;2024-01-27T04:57:49;2.10;99.90
4566;DHT22;2295;51.050;14.608;2024-01-27T05:00:21;2.10;99.90
4566;DHT22;2295;51.050;14.608;2024-01-27T05:02:51;2.10;99.90
4566;DHT22;2295;51.050;14.608;2024-01-27T05:05:28;2.10;99.90
4566;DHT22;2295;51.050;14.608;2024-01-27T05:08:15;2.10;99.90
4566;DHT22;2295;51.050;14.608;2024-01-27T05:10:52;2.10;99.90
4566;DHT22;2295;51.050;14.608;2024-01-27T05:13:25;2.10;99.90
4566;DHT22;2295;51.050;14.608;2024-01-27T05:15:56;2.10;99.90
4566;DHT22;2295;51.050;14.608;2024-01-27T05:18:26;2.10;99.90
4566;DHT22;2295;51.050;14.608;2024-01-27T05:20:55;2.10;99.90
4566;DHT22;2295;51.050;14.608;2024-01-27T05:23:23;2.10;99.90
4566;DHT22;2295;51.050;14.608;2024-01-27T05:25:51;2.10;99.90
4566;DHT22;2295;51.050;14.608;2024-01-27T05:28:21;2.10;99.90
4566;DHT22;2295;51.050;14.608;2024-01-27T05:30:53;2.00;99.90
4566;DHT22;2295;51.050;14.608;2024-01-27T05:33:21;2.00;99.90
4566;DHT22;2295;51.050;14.608;2024-01-27T05:35:51;2.10;99.90
4566;DHT22;2295;51.050;14.608;2024-01-27T05:38:22;2.10;99.90
4566;DHT22;2295;51.050;14.608;2024-01-27T05:40:53;2.00;99.90
4566;DHT22;2295;51.050;14.608;2024-01-27T05:43:21;2.00;99.90
4566;DHT22;2295;51.050;14.608;2024-01-27T05:45:49;2.00;99.90
4566;DHT22;2295;51.050;14.608;2024-01-27T05:48:47;1.90;99.90
4566;DHT22;2295;51.050;14.608;2024-01-27T05:54:53;2.00;99.90
4566;DHT22;2295;51.050;14.608;2024-01-27T05:57:40;1.90;99.90
4566;DHT22;2295;51.050;14.608;2024-01-27T06:00:10;1.90;99.90
4566;DHT22;2295;51.050;14.608;2024-01-27T06:02:39;1.90;99.90
4566;DHT22;2295;51.050;14.608;2024-01-27T06:05:26;1.80;99.90
4566;DHT22;2295;51.050;14.608;2024-01-27T06:07:58;1.80;99.90
4566;DHT22;2295;51.050;14.608;2024-01-27T06:10:38;1.80;99.90
4566;DHT22;2295;51.050;14.608;2024-01-27T06:13:07;1.80;99.90
4566;DHT22;2295;51.050;14.608;2024-01-27T06:15:35;1.80;99.90
4566;DHT22;2295;51.050;14.608;2024-01-27T06:18:07;1.70;99.90
4566;DHT22;2295;51.050;14.608;2024-01-27T06:20:46;1.80;99.90
4566;DHT22;2295;51.050;14.608;2024-01-27T06:23:38;1.80;99.90
4566;DHT22;2295;51.050;14.608;2024-01-27T06:26:08;1.80;99.90
4566;DHT22;2295;51.050;14.608;2024-01-27T06:28:37;1.90;99.90
4566;DHT22;2295;51.050;14.608;2024-01-27T06:31:06;1.80;99.90
4566;DHT22;2295;51.050;14.608;2024-01-27T06:33:35;1.80;99.90
4566;DHT22;2295;51.050;14.608;2024-01-27T06:36:07;1.70;99.90
4566;DHT22;2295;51.050;14.608;2024-01-27T06:38:51;1.70;99.90
4566;DHT22;2295;51.050;14.608;2024-01-27T06:41:21;1.70;99.90
4566;DHT22;2295;51.050;14.608;2024-01-27T06:43:50;1.70;99.90
4566;DHT22;2295;51.050;14.608;2024-01-27T06:46:21;1.70;99.90
4566;DHT22;2295;51.050;14.608;2024-01-27T06:48:52;1.60;99.90
4566;DHT22;2295;51.050;14.608;2024-01-27T06:51:28;1.60;99.90
4566;DHT22;2295;51.050;14.608;2024-01-27T06:53:56;1.60;99.90
4566;DHT22;2295;51.050;14.608;2024-01-27T06:56:47;1.70;99.90
4566;DHT22;2295;51.050;14.608;2024-01-27T06:59:15;1.70;99.90
4566;DHT22;2295;51.050;14.608;2024-01-27T07:01:52;1.80;99.90
4566;DHT22;2295;51.050;14.608;2024-01-27T07:04:25;1.80;99.90
4566;DHT22;2295;51.050;14.608;2024-01-27T07:07:10;1.90;99.90
4566;DHT22;2295;51.050;14.608;2024-01-27T07:09:49;1.90;99.90
4566;DHT22;2295;51.050;14.608;2024-01-27T07:12:19;2.00;99.90
4566;DHT22;2295;51.050;14.608;2024-01-27T07:14:57;2.00;99.90
4566;DHT22;2295;51.050;14.608;2024-01-27T07:17:27;2.00;99.90
4566;DHT22;2295;51.050;14.608;2024-01-27T07:19:56;2.10;99.90
4566;DHT22;2295;51.050;14.608;2024-01-27T07:22:44;2.10;99.90
4566;DHT22;2295;51.050;14.608;2024-01-27T07:25:17;2.10;99.90
4566;DHT22;2295;51.050;14.608;2024-01-27T07:27:52;2.10;99.90
4566;DHT22;2295;51.050;14.608;2024-01-27T07:30:24;2.10;99.90
4566;DHT22;2295;51.050;14.608;2024-01-27T07:32:56;2.20;99.90
4566;DHT22;2295;51.050;14.608;2024-01-27T07:35:24;2.20;99.90
4566;DHT22;2295;51.050;14.608;2024-01-27T07:37:53;2.20;99.90
4566;DHT22;2295;51.050;14.608;2024-01-27T07:40:21;2.20;99.90
4566;DHT22;2295;51.050;14.608;2024-01-27T07:42:51;2.20;99.90
4566;DHT22;2295;51.050;14.608;2024-01-27T07:45:20;2.20;99.90
4566;DHT22;2295;51.050;14.608;2024-01-27T07:47:48;2.30;99.90
4566;DHT22;2295;51.050;14.608;2024-01-27T07:50:20;2.30;99.90
4566;DHT22;2295;51.050;14.608;2024-01-27T07:52:49;2.40;99.90
4566;DHT22;2295;51.050;14.608;2024-01-27T07:55:27;2.40;99.90
4566;DHT22;2295;51.050;14.608;2024-01-27T07:57:57;2.40;99.90
4566;DHT22;2295;51.050;14.608;2024-01-27T08:00:26;2.40;99.90
4566;DHT22;2295;51.050;14.608;2024-01-27T08:03:05;2.40;99.90
4566;DHT22;2295;51.050;14.608;2024-01-27T08:05:33;2.40;99.90
4566;DHT22;2295;51.050;14.608;2024-01-27T08:08:02;2.40;99.90
4566;DHT22;2295;51.050;14.608;2024-01-27T08:10:33;2.40;99.90
4566;DHT22;2295;51.050;14.608;2024-01-27T08:13:04;2.40;99.90
4566;DHT22;2295;51.050;14.608;2024-01-27T08:15:34;2.40;99.90
4566;DHT22;2295;51.050;14.608;2024-01-27T08:18:05;2.40;99.90
4566;DHT22;2295;51.050;14.608;2024-01-27T08:20:35;2.40;99.90
4566;DHT22;2295;51.050;14.608;2024-01-27T08:23:03;2.50;99.90
4566;DHT22;2295;51.050;14.608;2024-01-27T08:25:34;2.50;99.90
4566;DHT22;2295;51.050;14.608;2024-01-27T08:28:07;2.50;99.90
4566;DHT22;2295;51.050;14.608;2024-01-27T08:30:36;2.50;99.90
4566;DHT22;2295;51.050;14.608;2024-01-27T08:33:05;2.50;99.90
4566;DHT22;2295;51.050;14.608;2024-01-27T08:35:35;2.50;99.90
4566;DHT22;2295;51.050;14.608;2024-01-27T08:38:06;2.60;99.90
4566;DHT22;2295;51.050;14.608;2024-01-27T08:40:37;2.60;99.90
4566;DHT22;2295;51.050;14.608;2024-01-27T08:43:07;2.60;99.90
4566;DHT22;2295;51.050;14.608;2024-01-27T08:45:40;2.60;99.90
4566;DHT22;2295;51.050;14.608;2024-01-27T08:48:08;2.60;99.90
4566;DHT22;2295;51.050;14.608;2024-01-27T08:50:38;2.60;99.90
4566;DHT22;2295;51.050;14.608;2024-01-27T08:53:07;2.60;99.90
4566;DHT22;2295;51.050;14.608;2024-01-27T08:55:35;2.70;99.90
4566;DHT22;2295;51.050;14.608;2024-01-27T08:58:14;2.70;99.90
4566;DHT22;2295;51.050;14.608;2024-01-27T09:00:43;2.70;99.90
4566;DHT22;2295;51.050;14.608;2024-01-27T09:03:12;2.70;99.90
4566;DHT22;2295;51.050;14.608;2024-01-27T09:05:41;2.70;99.90
4566;DHT22;2295;51.050;14.608;2024-01-27T09:08:12;2.80;99.90
4566;DHT22;2295;51.050;14.608;2024-01-27T09:10:40;2.80;99.90
4566;DHT22;2295;51.050;14.608;2024-01-27T09:13:09;2.80;99.90
4566;DHT22;2295;51.050;14.608;2024-01-27T09:15:38;2.80;99.90
4566;DHT22;2295;51.050;14.608;2024-01-27T09:18:07;2.80;99.90
4566;DHT22;2295;51.050;14.608;2024-01-27T09:20:36;2.80;99.90
4566;DHT22;2295;51.050;14.608;2024-01-27T09:23:04;2.80;99.90
4566;DHT22;2295;51.050;14.608;2024-01-27T09:25:33;2.80;99.90
4566;DHT22;2295;51.050;14.608;2024-01-27T09:28:04;2.80;99.90
4566;DHT22;2295;51.050;14.608;2024-01-27T09:30:32;2.80;99.90
4566;DHT22;2295;51.050;14.608;2024-01-27T09:33:07;2.80;99.90
4566;DHT22;2295;51.050;14.608;2024-01-27T09:35:38;2.90;99.90
4566;DHT22;2295;51.050;14.608;2024-01-27T09:38:06;2.90;99.90
4566;DHT22;2295;51.050;14.608;2024-01-27T09:40:36;2.90;99.90
4566;DHT22;2295;51.050;14.608;2024-01-27T09:43:11;3.00;99.90
4566;DHT22;2295;51.050;14.608;2024-01-27T09:45:41;3.00;99.90
4566;DHT22;2295;51.050;14.608;2024-01-27T09:48:12;3.00;99.90
4566;DHT22;2295;51.050;14.608;2024-01-27T09:50:42;3.00;99.90
4566;DHT22;2295;51.050;14.608;2024-01-27T09:53:10;3.00;99.90
4566;DHT22;2295;51.050;14.608;2024-01-27T09:55:39;3.00;99.90
4566;DHT22;2295;51.050;14.608;2024-01-27T09:58:08;3.00;99.90
4566;DHT22;2295;51.050;14.608;2024-01-27T10:00:37;3.00;99.90
4566;DHT22;2295;51.050;14.608;2024-01-27T10:03:08;3.00;99.90
4566;DHT22;2295;51.050;14.608;2024-01-27T10:05:38;3.10;99.90
4566;DHT22;2295;51.050;14.608;2024-01-27T10:08:11;3.10;99.90
4566;DHT22;2295;51.050;14.608;2024-01-27T10:10:40;3.10;99.90
4566;DHT22;2295;51.050;14.608;2024-01-27T10:13:10;3.10;99.90
4566;DHT22;2295;51.050;14.608;2024-01-27T10:15:41;3.10;99.90
4566;DHT22;2295;51.050;14.608;2024-01-27T10:18:10;3.10;99.90
4566;DHT22;2295;51.050;14.608;2024-01-27T10:20:44;3.10;99.90
4566;DHT22;2295;51.050;14.608;2024-01-27T10:23:15;3.10;99.90
4566;DHT22;2295;51.050;14.608;2024-01-27T10:25:43;3.10;99.90
4566;DHT22;2295;51.050;14.608;2024-01-27T10:28:13;3.10;99.90
4566;DHT22;2295;51.050;14.608;2024-01-27T10:30:42;3.10;99.90
4566;DHT22;2295;51.050;14.608;2024-01-27T10:33:11;3.10;99.90
4566;DHT22;2295;51.050;14.608;2024-01-27T10:35:41;3.10;99.90
4566;DHT22;2295;51.050;14.608;2024-01-27T10:38:10;3.10;99.90
4566;DHT22;2295;51.050;14.608;2024-01-27T10:40:39;3.10;99.90
4566;DHT22;2295;51.050;14.608;2024-01-27T10:43:08;3.10;99.90
4566;DHT22;2295;51.050;14.608;2024-01-27T10:45:38;3.20;99.90
4566;DHT22;2295;51.050;14.608;2024-01-27T10:48:09;3.30;99.90
4566;DHT22;2295;51.050;14.608;2024-01-27T10:50:40;3.20;99.90
4566;DHT22;2295;51.050;14.608;2024-01-27T10:53:21;3.30;99.90
4566;DHT22;2295;51.050;14.608;2024-01-27T10:55:53;3.30;99.90
4566;DHT22;2295;51.050;14.608;2024-01-27T10:58:23;3.40;99.90
4566;DHT22;2295;51.050;14.608;2024-01-27T11:00:53;3.40;99.90
4566;DHT22;2295;51.050;14.608;2024-01-27T11:03:24;3.30;99.90
4566;DHT22;2295;51.050;14.608;2024-01-27T11:05:55;3.40;99.90
4566;DHT22;2295;51.050;14.608;2024-01-27T11:08:26;3.40;99.90
4566;DHT22;2295;51.050;14.608;2024-01-27T11:11:15;3.40;99.90
4566;DHT22;2295;51.050;14.608;2024-01-27T11:14:17;3.40;99.90
4566;DHT22;2295;51.050;14.608;2024-01-27T11:17:03;3.50;99.90
4566;DHT22;2295;51.050;14.608;2024-01-27T11:19:40;3.40;99.90
4566;DHT22;2295;51.050;14.608;2024-01-27T11:22:24;3.40;99.90
4566;DHT22;2295;51.050;14.608;2024-01-27T11:25:08;3.50;99.90
4566;DHT22;2295;51.050;14.608;2024-01-27T11:27:45;3.50;99.90
4566;DHT22;2295;51.050;14.608;2024-01-27T11:30:27;3.60;99.90
4566;DHT22;2295;51.050;14.608;2024-01-27T11:33:11;3.70;99.90
4566;DHT22;2295;51.050;14.608;2024-01-27T11:36:00;3.60;99.90
4566;DHT22;2295;51.050;14.608;2024-01-27T11:38:32;3.60;99.90
4566;DHT22;2295;51.050;14.608;2024-01-27T11:41:06;3.60;99.90
4566;DHT22;2295;51.050;14.608;2024-01-27T11:43:38;3.60;99.90
4566;DHT22;2295;51.050;14.608;2024-01-27T11:46:12;3.60;99.90
4566;DHT22;2295;51.050;14.608;2024-01-27T11:48:43;3.70;99.90
4566;DHT22;2295;51.050;14.608;2024-01-27T11:51:15;3.70;99.90
4566;DHT22;2295;51.050;14.608;2024-01-27T11:53:44;3.80;99.90
4566;DHT22;2295;51.050;14.608;2024-01-27T11:56:15;3.80;99.90
4566;DHT22;2295;51.050;14.608;2024-01-27T11:58:47;3.80;99.90
4566;DHT22;2295;51.050;14.608;2024-01-27T12:01:16;3.80;99.90
4566;DHT22;2295;51.050;14.608;2024-01-27T12:03:45;3.80;99.90
4566;DHT22;2295;51.050;14.608;2024-01-27T12:06:18;3.80;99.90
4566;DHT22;2295;51.050;14.608;2024-01-27T12:08:52;3.80;99.90
4566;DHT22;2295;51.050;14.608;2024-01-27T12:11:23;3.80;99.90
4566;DHT22;2295;51.050;14.608;2024-01-27T12:13:53;3.80;99.90
4566;DHT22;2295;51.050;14.608;2024-01-27T12:16:25;3.80;99.90
4566;DHT22;2295;51.050;14.608;2024-01-27T12:18:54;3.70;99.90
4566;DHT22;2295;51.050;14.608;2024-01-27T12:21:22;3.70;99.90
4566;DHT22;2295;51.050;14.608;2024-01-27T12:23:52;3.80;99.90
4566;DHT22;2295;51.050;14.608;2024-01-27T12:26:35;3.90;99.90
4566;DHT22;2295;51.050;14.608;2024-01-27T12:29:06;3.90;99.90
4566;DHT22;2295;51.050;14.608;2024-01-27T12:31:38;4.00;99.90
4566;DHT22;2295;51.050;14.608;2024-01-27T12:35:04;4.00;99.90
4566;DHT22;2295;51.050;14.608;2024-01-27T12:37:34;4.00;99.90
4566;DHT22;2295;51.050;14.608;2024-01-27T12:40:40;3.90;99.90
4566;DHT22;2295;51.050;14.608;2024-01-27T12:43:14;3.80;99.90
4566;DHT22;2295;51.050;14.608;2024-01-27T12:45:43;3.80;99.90
4566;DHT22;2295;51.050;14.608;2024-01-27T12:48:24;3.80;99.90
4566;DHT22;2295;51.050;14.608;2024-01-27T12:51:00;3.90;99.90
4566;DHT22;2295;51.050;14.608;2024-01-27T12:53:32;4.00;99.90
4566;DHT22;2295;51.050;14.608;2024-01-27T12:56:00;4.00;99.90
4566;DHT22;2295;51.050;14.608;2024-01-27T12:58:51;4.10;99.90
4566;DHT22;2295;51.050;14.608;2024-01-27T13:01:20;4.20;99.90
4566;DHT22;2295;51.050;14.608;2024-01-27T13:03:50;4.10;99.90
4566;DHT22;2295;51.050;14.608;2024-01-27T13:06:25;4.00;99.90
4566;DHT22;2295;51.050;14.608;2024-01-27T13:08:53;3.90;99.90
4566;DHT22;2295;51.050;14.608;2024-01-27T13:11:22;4.00;99.90
4566;DHT22;2295;51.050;14.608;2024-01-27T13:13:55;4.10;99.90
4566;DHT22;2295;51.050;14.608;2024-01-27T13:16:35;4.20;99.90
4566;DHT22;2295;51.050;14.608;2024-01-27T13:19:04;4.30;99.90
4566;DHT22;2295;51.050;14.608;2024-01-27T13:21:38;4.30;99.90
4566;DHT22;2295;51.050;14.608;2024-01-27T13:24:07;4.30;99.90
4566;DHT22;2295;51.050;14.608;2024-01-27T13:27:06;4.30;99.90
4566;DHT22;2295;51.050;14.608;2024-01-27T13:29:44;4.30;99.90
4566;DHT22;2295;51.050;14.608;2024-01-27T13:32:41;4.40;99.90
4566;DHT22;2295;51.050;14.608;2024-01-27T13:35:09;4.60;99.90
4566;DHT22;2295;51.050;14.608;2024-01-27T13:37:41;4.50;99.90
4566;DHT22;2295;51.050;14.608;2024-01-27T13:40:12;4.40;99.90
4566;DHT22;2295;51.050;14.608;2024-01-27T13:42:43;4.40;99.90
4566;DHT22;2295;51.050;14.608;2024-01-27T13:45:13;4.40;99.90
4566;DHT22;2295;51.050;14.608;2024-01-27T13:47:55;4.50;99.90
4566;DHT22;2295;51.050;14.608;2024-01-27T13:50:27;4.50;99.90
4566;DHT22;2295;51.050;14.608;2024-01-27T13:52:58;4.50;99.90
4566;DHT22;2295;51.050;14.608;2024-01-27T13:55:29;4.40;99.90
4566;DHT22;2295;51.050;14.608;2024-01-27T13:58:01;4.50;99.90
4566;DHT22;2295;51.050;14.608;2024-01-27T14:00:31;4.60;99.90
4566;DHT22;2295;51.050;14.608;2024-01-27T14:03:06;4.60;99.90
4566;DHT22;2295;51.050;14.608;2024-01-27T14:05:56;4.60;99.90
4566;DHT22;2295;51.050;14.608;2024-01-27T14:08:28;4.60;99.90
4566;DHT22;2295;51.050;14.608;2024-01-27T14:10:57;4.60;99.90
4566;DHT22;2295;51.050;14.608;2024-01-27T14:13:28;4.70;99.90
4566;DHT22;2295;51.050;14.608;2024-01-27T14:15:58;4.70;99.90
4566;DHT22;2295;51.050;14.608;2024-01-27T14:18:27;4.70;99.90
4566;DHT22;2295;51.050;14.608;2024-01-27T14:20:56;4.70;99.90
4566;DHT22;2295;51.050;14.608;2024-01-27T14:23:24;4.70;99.90
4566;DHT22;2295;51.050;14.608;2024-01-27T14:26:06;4.70;99.90
4566;DHT22;2295;51.050;14.608;2024-01-27T14:28:42;4.70;99.90
4566;DHT22;2295;51.050;14.608;2024-01-27T14:31:15;4.50;99.90
4566;DHT22;2295;51.050;14.608;2024-01-27T14:33:44;4.30;99.90
4566;DHT22;2295;51.050;14.608;2024-01-27T14:36:19;4.20;99.90
4566;DHT22;2295;51.050;14.608;2024-01-27T14:38:51;4.10;99.90
4566;DHT22;2295;51.050;14.608;2024-01-27T14:41:22;4.10;99.90
4566;DHT22;2295;51.050;14.608;2024-01-27T14:43:55;4.00;99.90
4566;DHT22;2295;51.050;14.608;2024-01-27T14:46:41;4.00;99.90
4566;DHT22;2295;51.050;14.608;2024-01-27T14:50:04;3.90;99.90
4566;DHT22;2295;51.050;14.608;2024-01-27T14:52:45;3.80;99.90
4566;DHT22;2295;51.050;14.608;2024-01-27T14:55:17;3.80;99.90
4566;DHT22;2295;51.050;14.608;2024-01-27T14:57:45;3.70;99.90
4566;DHT22;2295;51.050;14.608;2024-01-27T15:00:15;3.60;99.90
4566;DHT22;2295;51.050;14.608;2024-01-27T15:02:51;3.60;99.90
4566;DHT22;2295;51.050;14.608;2024-01-27T15:05:23;3.60;99.90
4566;DHT22;2295;51.050;14.608;2024-01-27T15:07:51;3.60;99.90
4566;DHT22;2295;51.050;14.608;2024-01-27T15:10:20;3.60;99.90
4566;DHT22;2295;51.050;14.608;2024-01-27T15:12:51;3.60;99.90
4566;DHT22;2295;51.050;14.608;2024-01-27T15:15:19;3.60;99.90
4566;DHT22;2295;51.050;14.608;2024-01-27T15:17:48;3.50;99.90
4566;DHT22;2295;51.050;14.608;2024-01-27T15:20:18;3.50;99.90
4566;DHT22;2295;51.050;14.608;2024-01-27T15:22:46;3.50;99.90
4566;DHT22;2295;51.050;14.608;2024-01-27T15:25:14;3.50;99.90
4566;DHT22;2295;51.050;14.608;2024-01-27T15:28:02;3.40;99.90
4566;DHT22;2295;51.050;14.608;2024-01-27T15:30:37;3.30;99.90
4566;DHT22;2295;51.050;14.608;2024-01-27T15:33:29;3.20;99.90
4566;DHT22;2295;51.050;14.608;2024-01-27T15:36:18;3.10;99.90
4566;DHT22;2295;51.050;14.608;2024-01-27T15:38:49;3.10;99.90
4566;DHT22;2295;51.050;14.608;2024-01-27T15:41:21;3.20;99.90
4566;DHT22;2295;51.050;14.608;2024-01-27T15:43:50;3.10;99.90
4566;DHT22;2295;51.050;14.608;2024-01-27T15:46:53;3.00;99.90
4566;DHT22;2295;51.050;14.608;2024-01-27T15:49:32;2.80;99.90
4566;DHT22;2295;51.050;14.608;2024-01-27T15:52:05;2.60;99.90
4566;DHT22;2295;51.050;14.608;2024-01-27T15:54:36;2.50;99.90
4566;DHT22;2295;51.050;14.608;2024-01-27T15:57:06;2.40;99.90
4566;DHT22;2295;51.050;14.608;2024-01-27T16:00:01;2.40;99.90
4566;DHT22;2295;51.050;14.608;2024-01-27T16:02:54;2.30;99.90
4566;DHT22;2295;51.050;14.608;2024-01-27T16:05:48;2.20;99.90
4566;DHT22;2295;51.050;14.608;2024-01-27T16:08:34;2.20;99.90
4566;DHT22;2295;51.050;14.608;2024-01-27T16:11:20;2.20;99.90
4566;DHT22;2295;51.050;14.608;2024-01-27T16:13:48;2.20;99.90
4566;DHT22;2295;51.050;14.608;2024-01-27T16:16:16;2.20;99.90
4566;DHT22;2295;51.050;14.608;2024-01-27T16:18:56;2.40;99.90
4566;DHT22;2295;51.050;14.608;2024-01-27T16:21:25;2.20;99.90
4566;DHT22;2295;51.050;14.608;2024-01-27T16:24:03;2.30;99.90
4566;DHT22;2295;51.050;14.608;2024-01-27T16:26:52;2.20;99.90
4566;DHT22;2295;51.050;14.608;2024-01-27T16:29:21;2.40;99.90
4566;DHT22;2295;51.050;14.608;2024-01-27T16:31:51;2.40;99.90
4566;DHT22;2295;51.050;14.608;2024-01-27T16:34:20;2.30;99.90
4566;DHT22;2295;51.050;14.608;2024-01-27T16:36:49;2.20;99.90
4566;DHT22;2295;51.050;14.608;2024-01-27T16:39:19;2.10;99.90
4566;DHT22;2295;51.050;14.608;2024-01-27T16:41:47;1.90;99.90
4566;DHT22;2295;51.050;14.608;2024-01-27T16:44:20;1.90;99.90
4566;DHT22;2295;51.050;14.608;2024-01-27T16:47:06;1.80;99.90
4566;DHT22;2295;51.050;14.608;2024-01-27T16:49:45;1.90;99.90
4566;DHT22;2295;51.050;14.608;2024-01-27T16:52:32;1.90;99.90
4566;DHT22;2295;51.050;14.608;2024-01-27T16:55:33;1.90;99.90
4566;DHT22;2295;51.050;14.608;2024-01-27T16:58:17;1.80;99.90